createdAt,value
2023-05-14T00:00:58.853Z,102071.03
2023-05-14T00:03:25.447Z,102084.13
2023-05-14T00:05:52.178Z,102080.78
2023-05-14T00:08:18.588Z,102072.19
2023-05-14T00:10:45.047Z,102069.78
2023-05-14T00:13:11.461Z,102066.34
2023-05-14T00:15:38.015Z,102064.50
2023-05-14T00:18:04.655Z,102055.94
2023-05-14T00:20:31.137Z,102056.91
2023-05-14T00:22:57.536Z,102058.91
2023-05-14T00:25:24.046Z,102053.09
2023-05-14T00:27:50.526Z,102056.50
2023-05-14T00:30:16.995Z,102056.50
2023-05-14T00:32:43.394Z,102047.00
2023-05-14T00:35:09.827Z,102048.03
2023-05-14T00:37:37.208Z,102046.28
2023-05-14T00:40:04.059Z,102046.09
2023-05-14T00:42:30.445Z,102040.97
2023-05-14T00:44:56.814Z,102037.56
2023-05-14T00:47:23.466Z,102034.84
2023-05-14T00:49:50.050Z,102037.53
2023-05-14T00:52:17.808Z,102033.44
2023-05-14T00:54:47.033Z,102027.41
2023-05-14T00:57:13.734Z,102025.06
2023-05-14T00:59:41.802Z,102020.72
2023-05-14T01:02:08.283Z,102018.16
2023-05-14T01:04:35.241Z,102019.88
2023-05-14T01:07:18.855Z,102022.28
2023-05-14T01:10:08.395Z,102024.25
2023-05-14T01:13:13.818Z,102022.75
2023-05-14T01:15:41.771Z,102023.25
2023-05-14T01:18:10.487Z,102020.53
2023-05-14T01:20:37.149Z,102021.50
2023-05-14T01:23:03.697Z,102017.19
2023-05-14T01:25:31.341Z,102019.78
2023-05-14T01:28:11.985Z,102019.78
2023-05-14T01:30:49.246Z,102025.00
2023-05-14T01:33:18.244Z,102017.41
2023-05-14T01:35:45.322Z,102022.69
2023-05-14T01:38:13.968Z,102026.34
2023-05-14T01:40:41.762Z,102021.25
2023-05-14T01:43:08.708Z,102017.00
2023-05-14T01:45:36.184Z,102014.44
2023-05-14T01:48:04.131Z,102014.59
2023-05-14T01:50:30.717Z,102010.25
2023-05-14T01:52:57.160Z,101999.97
2023-05-14T01:55:24.456Z,102001.88
2023-05-14T01:57:51.621Z,102007.00
2023-05-14T02:00:18.551Z,102012.09
2023-05-14T02:02:45.008Z,101997.25
2023-05-14T02:05:12.653Z,102004.38
2023-05-14T02:07:39.182Z,101993.16
2023-05-14T02:10:06.316Z,101989.69
2023-05-14T02:12:32.793Z,101987.00
2023-05-14T02:14:59.189Z,101987.88
2023-05-14T02:17:26.430Z,101975.84
2023-05-14T02:19:53.135Z,101982.91
2023-05-14T02:22:19.517Z,101984.78
2023-05-14T02:24:45.899Z,101989.84
2023-05-14T02:27:13.297Z,101993.59
2023-05-14T02:29:39.686Z,101989.41
2023-05-14T02:32:06.419Z,101988.56
2023-05-14T02:34:34.409Z,101983.44
2023-05-14T02:37:01.053Z,101979.25
2023-05-14T02:39:27.591Z,101981.84
2023-05-14T02:41:53.974Z,101975.59
2023-05-14T02:44:20.449Z,101973.19
2023-05-14T02:46:47.665Z,101982.03
2023-05-14T02:49:14.047Z,101976.03
2023-05-14T02:51:40.519Z,101973.66
2023-05-14T02:54:07.256Z,101968.38
2023-05-14T02:56:33.627Z,101965.88
2023-05-14T02:59:00.463Z,101965.16
2023-05-14T03:01:27.324Z,101968.63
2023-05-14T03:03:54.195Z,101966.94
2023-05-14T03:06:20.554Z,101970.38
2023-05-14T03:08:46.983Z,101970.19
2023-05-14T03:11:13.427Z,101963.41
2023-05-14T03:13:39.781Z,101965.25
2023-05-14T03:16:06.510Z,101964.59
2023-05-14T03:18:34.623Z,101958.53
2023-05-14T03:21:01.126Z,101960.28
2023-05-14T03:23:27.816Z,101975.28
2023-05-14T03:25:54.256Z,101971.91
2023-05-14T03:28:20.674Z,101965.16
2023-05-14T03:30:47.069Z,101963.44
2023-05-14T03:33:13.892Z,101960.78
2023-05-14T03:35:40.335Z,101965.06
2023-05-14T03:38:07.479Z,101968.41
2023-05-14T03:40:34.002Z,101970.31
2023-05-14T03:43:00.666Z,101962.59
2023-05-14T03:45:28.688Z,101967.03
2023-05-14T03:47:55.131Z,101973.13
2023-05-14T03:50:21.850Z,101962.84
2023-05-14T03:52:48.364Z,101966.22
2023-05-14T03:55:14.786Z,101955.81
2023-05-14T03:57:41.442Z,101957.56
2023-05-14T04:00:08.692Z,101959.25
2023-05-14T04:02:35.262Z,101956.66
2023-05-14T04:05:01.757Z,101961.03
2023-05-14T04:07:28.188Z,101953.25
2023-05-14T04:09:54.609Z,101948.91
2023-05-14T04:12:21.062Z,101941.91
2023-05-14T04:14:47.519Z,101947.22
2023-05-14T04:17:13.908Z,101944.53
2023-05-14T04:19:40.477Z,101947.84
2023-05-14T04:22:06.854Z,101951.25
2023-05-14T04:24:33.307Z,101944.31
2023-05-14T04:27:00.063Z,101944.34
2023-05-14T04:29:26.561Z,101941.69
2023-05-14T04:31:53.596Z,101934.75
2023-05-14T04:34:20.224Z,101939.09
2023-05-14T04:36:46.624Z,101950.34
2023-05-14T04:39:13.078Z,101944.31
2023-05-14T04:41:39.501Z,101944.19
2023-05-14T04:44:05.902Z,101945.78
2023-05-14T04:46:32.405Z,101944.91
2023-05-14T04:48:58.817Z,101945.59
2023-05-14T04:51:26.291Z,101940.09
2023-05-14T04:53:52.694Z,101947.88
2023-05-14T04:56:19.043Z,101950.34
2023-05-14T04:58:45.508Z,101951.09
2023-05-14T05:01:12.144Z,101945.78
2023-05-14T05:03:38.679Z,101950.06
2023-05-14T05:06:05.240Z,101953.53
2023-05-14T05:08:31.646Z,101952.59
2023-05-14T05:10:58.130Z,101946.34
2023-05-14T05:13:24.537Z,101958.31
2023-05-14T05:15:51.100Z,101956.44
2023-05-14T05:18:17.609Z,101954.47
2023-05-14T05:20:44.113Z,101955.22
2023-05-14T05:23:10.505Z,101953.44
2023-05-14T05:25:36.854Z,101950.69
2023-05-14T05:28:03.269Z,101949.59
2023-05-14T05:30:30.244Z,101957.38
2023-05-14T05:32:57.602Z,101959.88
2023-05-14T05:35:24.444Z,101963.22
2023-05-14T05:37:50.971Z,101964.78
2023-05-14T05:40:17.578Z,101963.75
2023-05-14T05:42:43.937Z,101959.56
2023-05-14T05:45:10.591Z,101956.94
2023-05-14T05:47:37.158Z,101960.22
2023-05-14T05:50:03.857Z,101965.19
2023-05-14T05:52:30.413Z,101961.00
2023-05-14T05:54:56.791Z,101968.03
2023-05-14T05:57:25.626Z,101969.94
2023-05-14T05:59:53.113Z,101967.50
2023-05-14T06:02:19.995Z,101965.81
2023-05-14T06:04:46.781Z,101968.19
2023-05-14T06:07:13.204Z,101961.00
2023-05-14T06:09:39.579Z,101973.75
2023-05-14T06:12:06.426Z,101971.94
2023-05-14T06:14:32.853Z,101960.88
2023-05-14T06:16:59.294Z,101966.81
2023-05-14T06:19:25.683Z,101986.81
2023-05-14T06:21:52.047Z,101976.31
2023-05-14T06:24:20.046Z,101973.41
2023-05-14T06:26:46.529Z,101975.66
2023-05-14T06:29:12.975Z,101995.38
2023-05-14T06:31:39.456Z,101985.19
2023-05-14T06:34:05.957Z,101991.63
2023-05-14T06:36:32.378Z,101974.34
2023-05-14T06:38:58.856Z,101971.81
2023-05-14T06:41:26.125Z,101969.88
2023-05-14T06:43:52.587Z,101975.59
2023-05-14T06:46:18.952Z,101967.69
2023-05-14T06:48:45.722Z,101981.44
2023-05-14T06:51:13.243Z,101979.34
2023-05-14T06:53:40.607Z,101963.41
2023-05-14T06:56:07.029Z,101967.13
2023-05-14T06:58:33.447Z,101954.53
2023-05-14T07:01:00.120Z,101960.59
2023-05-14T07:03:26.685Z,101962.69
2023-05-14T07:05:53.113Z,101962.63
2023-05-14T07:08:19.482Z,101952.69
2023-05-14T07:10:45.841Z,101957.50
2023-05-14T07:13:12.215Z,101961.59
2023-05-14T07:15:38.633Z,101960.84
2023-05-14T07:18:05.242Z,101971.19
2023-05-14T07:20:31.651Z,101967.84
2023-05-14T07:22:58.066Z,101968.44
2023-05-14T07:25:24.479Z,101966.41
2023-05-14T07:27:50.886Z,101966.28
2023-05-14T07:30:17.474Z,101965.22
2023-05-14T07:32:44.165Z,101960.59
2023-05-14T07:35:11.703Z,101958.09
2023-05-14T07:37:38.574Z,101957.44
2023-05-14T07:40:05.493Z,101958.22
2023-05-14T07:42:36.603Z,101960.59
2023-05-14T07:45:04.741Z,101960.38
2023-05-14T07:47:31.209Z,101954.19
2023-05-14T07:49:57.949Z,101954.00
2023-05-14T07:52:24.925Z,101950.59
2023-05-14T07:54:51.908Z,101952.47
2023-05-14T07:57:19.716Z,101956.31
2023-05-14T07:59:46.765Z,101953.78
2023-05-14T08:02:14.028Z,101951.66
2023-05-14T08:04:40.493Z,101944.75
2023-05-14T08:07:08.456Z,101948.75
2023-05-14T08:09:34.881Z,101951.75
2023-05-14T08:12:01.436Z,101944.41
2023-05-14T08:14:28.637Z,101947.31
2023-05-14T08:16:55.061Z,101947.47
2023-05-14T08:19:21.605Z,101947.81
2023-05-14T08:21:48.029Z,101948.13
2023-05-14T08:24:14.989Z,101952.00
2023-05-14T08:26:41.923Z,101946.97
2023-05-14T08:29:10.488Z,101946.19
2023-05-14T08:31:37.429Z,101952.50
2023-05-14T08:34:03.878Z,101942.88
2023-05-14T08:36:30.325Z,101939.13
2023-05-14T08:38:56.858Z,101931.91
2023-05-14T08:41:23.345Z,101943.16
2023-05-14T08:44:18.546Z,101943.06
2023-05-14T08:46:45.660Z,101943.06
2023-05-14T08:49:37.485Z,101935.25
2023-05-14T08:52:04.271Z,101927.94
2023-05-14T08:54:32.493Z,101931.69
2023-05-14T08:56:59.539Z,101925.94
2023-05-14T08:59:26.010Z,101927.75
2023-05-14T09:01:54.282Z,101924.38
2023-05-14T09:04:23.046Z,101929.63
2023-05-14T09:06:51.876Z,101922.47
2023-05-14T09:09:18.814Z,101920.59
2023-05-14T09:11:53.044Z,101913.63
2023-05-14T09:14:20.281Z,101917.75
2023-05-14T09:16:48.877Z,101915.13
2023-05-14T09:19:18.837Z,101918.25
2023-05-14T09:21:46.452Z,101908.34
2023-05-14T09:24:21.440Z,101905.50
2023-05-14T09:26:51.724Z,101899.78
2023-05-14T09:29:18.522Z,101904.38
2023-05-14T09:31:45.352Z,101901.88
2023-05-14T09:34:12.041Z,101900.53
2023-05-14T09:36:38.524Z,101896.78
2023-05-14T09:39:05.059Z,101897.44
2023-05-14T09:41:31.518Z,101895.34
2023-05-14T09:43:57.984Z,101897.06
2023-05-14T09:46:27.278Z,101893.47
2023-05-14T09:48:55.955Z,101883.25
2023-05-14T09:51:22.534Z,101887.47
2023-05-14T09:53:52.436Z,101888.91
2023-05-14T09:56:18.929Z,101889.75
2023-05-14T09:58:45.342Z,101890.91
2023-05-14T10:01:12.470Z,101894.59
2023-05-14T10:03:39.509Z,101885.53
2023-05-14T10:06:06.862Z,101885.31
2023-05-14T10:08:35.400Z,101882.94
2023-05-14T10:11:06.483Z,101880.06
2023-05-14T10:13:40.622Z,101874.19
2023-05-14T10:16:31.906Z,101879.03
2023-05-14T10:19:06.005Z,101878.06
2023-05-14T10:21:35.960Z,101882.25
2023-05-14T10:24:06.783Z,101877.16
2023-05-14T10:26:38.949Z,101873.03
2023-05-14T10:29:06.325Z,101871.22
2023-05-14T10:31:55.945Z,101865.59
2023-05-14T10:34:33.372Z,101867.97
2023-05-14T10:37:02.153Z,101868.97
2023-05-14T10:39:46.379Z,101868.22
2023-05-14T10:42:22.051Z,101861.13
2023-05-14T10:45:07.371Z,101862.25
2023-05-14T10:47:36.338Z,101856.59
2023-05-14T10:50:05.531Z,101854.41
2023-05-14T10:52:32.292Z,101847.25
2023-05-14T10:55:03.408Z,101842.78
2023-05-14T10:57:31.972Z,101846.69
2023-05-14T11:00:01.020Z,101845.22
2023-05-14T11:02:33.179Z,101835.38
2023-05-14T11:05:11.464Z,101842.91
2023-05-14T11:07:42.524Z,101831.78
2023-05-14T11:10:10.295Z,101831.19
2023-05-14T11:12:39.163Z,101828.84
2023-05-14T11:15:11.640Z,101827.63
2023-05-14T11:17:40.310Z,101826.94
2023-05-14T11:20:07.899Z,101823.19
2023-05-14T11:22:35.502Z,101829.94
2023-05-14T11:25:02.328Z,101825.66
2023-05-14T11:27:29.990Z,101826.31
2023-05-14T11:29:58.042Z,101819.81
2023-05-14T11:32:24.673Z,101821.38
2023-05-14T11:34:51.389Z,101821.63
2023-05-14T11:37:17.872Z,101815.97
2023-05-14T11:39:55.132Z,101807.78
2023-05-14T11:42:22.573Z,101814.28
2023-05-14T11:44:51.977Z,101803.13
2023-05-14T11:47:20.624Z,101802.97
2023-05-14T11:49:48.052Z,101793.19
2023-05-14T11:52:16.263Z,101795.09
2023-05-14T11:54:44.240Z,101800.25
2023-05-14T11:57:14.396Z,101800.50
2023-05-14T11:59:41.224Z,101805.69
2023-05-14T12:02:17.392Z,101791.63
2023-05-14T12:04:45.049Z,101791.66
2023-05-14T12:07:15.078Z,101791.56
2023-05-14T12:09:49.651Z,101789.38
2023-05-14T12:12:19.719Z,101786.72
2023-05-14T12:14:46.746Z,101783.38
2023-05-14T12:17:22.858Z,101786.25
2023-05-14T12:19:51.438Z,101778.94
2023-05-14T12:22:22.161Z,101778.19
2023-05-14T12:24:55.952Z,101784.44
2023-05-14T12:27:27.214Z,101775.94
2023-05-14T12:32:35.791Z,101771.97
2023-05-14T12:35:02.350Z,101766.81
2023-05-14T12:37:31.032Z,101760.66
2023-05-14T12:39:57.718Z,101763.69
2023-05-14T12:42:24.144Z,101756.22
2023-05-14T12:44:50.648Z,101757.53
2023-05-14T12:47:17.336Z,101754.03
2023-05-14T12:49:43.777Z,101759.09
2023-05-14T12:54:42.891Z,101755.13
2023-05-14T12:57:09.474Z,101753.31
2023-05-14T12:59:35.985Z,101749.22
2023-05-14T13:02:02.426Z,101741.03
2023-05-14T13:04:28.877Z,101738.66
2023-05-14T13:06:55.477Z,101747.31
2023-05-14T13:09:21.855Z,101746.34
2023-05-14T13:11:48.225Z,101741.75
2023-05-14T13:14:14.651Z,101743.44
2023-05-14T13:16:41.112Z,101743.66
2023-05-14T13:19:07.610Z,101733.19
2023-05-14T13:21:34.043Z,101731.53
2023-05-14T13:24:00.454Z,101738.41
2023-05-14T13:26:28.217Z,101743.69
2023-05-14T13:28:54.621Z,101738.16
2023-05-14T13:31:21.107Z,101733.38
2023-05-14T13:33:47.522Z,101729.41
2023-05-14T13:36:14.698Z,101730.84
2023-05-14T13:38:41.255Z,101728.44
2023-05-14T13:41:08.491Z,101721.78
2023-05-14T13:43:35.925Z,101728.28
2023-05-14T13:46:04.336Z,101726.41
2023-05-14T13:48:33.995Z,101729.53
2023-05-14T13:51:00.459Z,101718.09
2023-05-14T13:53:27.249Z,101716.88
2023-05-14T13:55:58.274Z,101718.69
2023-05-14T13:58:25.259Z,101705.13
2023-05-14T14:00:52.611Z,101700.06
2023-05-14T14:03:19.109Z,101710.25
2023-05-14T14:05:45.617Z,101699.19
2023-05-14T14:08:22.516Z,101699.56
2023-05-14T14:10:50.627Z,101696.13
2023-05-14T14:13:17.048Z,101695.13
2023-05-14T14:15:43.760Z,101697.16
2023-05-14T14:18:10.241Z,101704.38
2023-05-14T14:20:36.669Z,101692.25
2023-05-14T14:23:03.519Z,101692.97
2023-05-14T14:25:29.889Z,101694.28
2023-05-14T14:27:56.642Z,101685.50
2023-05-14T14:30:22.993Z,101685.03
2023-05-14T14:32:49.825Z,101686.38
2023-05-14T14:35:17.654Z,101690.44
2023-05-14T14:37:48.498Z,101685.03
2023-05-14T14:40:16.194Z,101682.91
2023-05-14T14:42:43.281Z,101676.25
2023-05-14T14:45:10.362Z,101677.94
2023-05-14T14:47:36.926Z,101682.50
2023-05-14T14:50:03.522Z,101682.25
2023-05-14T14:52:30.223Z,101679.97
2023-05-14T14:54:56.954Z,101677.22
2023-05-14T14:57:23.441Z,101680.47
2023-05-14T14:59:49.859Z,101679.50
2023-05-14T15:02:16.592Z,101677.56
2023-05-14T15:04:43.173Z,101675.19
2023-05-14T15:07:09.678Z,101674.94
2023-05-14T15:09:36.135Z,101674.69
2023-05-14T15:12:02.601Z,101669.31
2023-05-14T15:14:29.036Z,101682.38
2023-05-14T15:16:55.726Z,101677.34
2023-05-14T15:19:22.179Z,101667.34
2023-05-14T15:21:48.598Z,101669.88
2023-05-14T15:24:15.003Z,101671.34
2023-05-14T15:26:41.927Z,101670.13
2023-05-14T15:29:08.356Z,101664.38
2023-05-14T15:31:34.877Z,101670.00
2023-05-14T15:34:01.471Z,101661.00
2023-05-14T15:36:28.632Z,101654.53
2023-05-14T15:38:55.066Z,101662.66
2023-05-14T15:41:22.700Z,101655.81
2023-05-14T15:43:49.091Z,101653.06
2023-05-14T15:46:15.492Z,101650.66
2023-05-14T15:48:42.096Z,101652.81
2023-05-14T15:51:08.558Z,101649.44
2023-05-14T15:53:34.950Z,101650.28
2023-05-14T15:56:01.490Z,101644.78
2023-05-14T15:58:27.922Z,101636.97
2023-05-14T16:00:54.321Z,101648.72
2023-05-14T16:03:20.816Z,101645.50
2023-05-14T16:05:48.447Z,101645.34
2023-05-14T16:08:14.916Z,101647.13
2023-05-14T16:10:41.364Z,101646.72
2023-05-14T16:13:07.802Z,101647.44
2023-05-14T16:15:34.334Z,101656.22
2023-05-14T16:18:00.912Z,101645.88
2023-05-14T16:20:27.333Z,101654.16
2023-05-14T16:22:53.692Z,101657.28
2023-05-14T16:25:20.243Z,101650.09
2023-05-14T16:27:46.752Z,101647.22
2023-05-14T16:30:13.387Z,101644.06
2023-05-14T16:32:42.021Z,101651.16
2023-05-14T16:35:09.924Z,101654.25
2023-05-14T16:37:36.353Z,101646.31
2023-05-14T16:40:02.996Z,101649.06
2023-05-14T16:42:29.428Z,101647.06
2023-05-14T16:44:55.831Z,101644.53
2023-05-14T16:47:22.181Z,101648.88
2023-05-14T16:49:48.672Z,101653.63
2023-05-14T16:52:15.312Z,101650.72
2023-05-14T16:54:41.778Z,101663.03
2023-05-14T16:57:08.218Z,101665.78
2023-05-14T16:59:34.650Z,101669.25
2023-05-14T17:02:01.243Z,101663.25
2023-05-14T17:04:27.854Z,101662.28
2023-05-14T17:06:55.140Z,101672.75
2023-05-14T17:09:21.607Z,101681.09
2023-05-14T17:11:48.028Z,101675.22
2023-05-14T17:14:14.846Z,101670.25
2023-05-14T17:16:42.263Z,101668.34
2023-05-14T17:19:08.943Z,101669.81
2023-05-14T17:21:35.518Z,101670.50
2023-05-14T17:24:01.957Z,101670.69
2023-05-14T17:26:28.353Z,101667.84
2023-05-14T17:28:54.715Z,101679.56
2023-05-14T17:31:22.233Z,101685.19
2023-05-14T17:33:49.382Z,101680.88
2023-05-14T17:36:15.885Z,101674.34
2023-05-14T17:38:42.334Z,101674.34
2023-05-14T17:41:09.650Z,101676.59
2023-05-14T17:43:36.190Z,101675.63
2023-05-14T17:46:03.444Z,101665.72
2023-05-14T17:48:29.979Z,101662.13
2023-05-14T17:50:56.391Z,101674.66
2023-05-14T17:53:22.737Z,101675.84
2023-05-14T17:55:50.068Z,101677.84
2023-05-14T17:58:16.706Z,101682.88
2023-05-14T18:00:43.622Z,101688.53
2023-05-14T18:03:10.640Z,101697.06
2023-05-14T18:05:37.108Z,101693.13
2023-05-14T18:08:03.517Z,101695.38
2023-05-14T18:10:30.062Z,101697.22
2023-05-14T18:12:56.663Z,101690.38
2023-05-14T18:15:25.741Z,101696.34
2023-05-14T18:17:52.672Z,101702.47
2023-05-14T18:20:19.524Z,101694.59
2023-05-14T18:22:46.202Z,101694.69
2023-05-14T18:25:13.527Z,101707.25
2023-05-14T18:27:44.292Z,101700.91
2023-05-14T18:30:15.274Z,101701.06
2023-05-14T18:32:43.977Z,101704.81
2023-05-14T18:35:11.540Z,101713.06
2023-05-14T18:37:38.013Z,101715.16
2023-05-14T18:40:05.168Z,101713.66
2023-05-14T18:42:31.633Z,101709.06
2023-05-14T18:44:58.054Z,101713.09
2023-05-14T18:47:24.791Z,101714.66
2023-05-14T18:49:55.040Z,101714.94
2023-05-14T18:52:22.623Z,101718.94
2023-05-14T18:54:49.084Z,101724.34
2023-05-14T18:57:15.531Z,101726.13
2023-05-14T18:59:41.944Z,101723.50
2023-05-14T19:02:08.370Z,101729.66
2023-05-14T19:04:44.255Z,101727.56
2023-05-14T19:07:17.366Z,101726.13
2023-05-14T19:09:43.771Z,101735.00
2023-05-14T19:12:10.202Z,101725.97
2023-05-14T19:14:36.741Z,101726.50
2023-05-14T19:17:03.438Z,101729.22
2023-05-14T19:19:29.919Z,101731.31
2023-05-14T19:21:56.530Z,101729.03
2023-05-14T19:24:22.892Z,101734.63
2023-05-14T19:26:49.339Z,101735.66
2023-05-14T19:29:15.745Z,101731.25
2023-05-14T19:31:42.166Z,101726.06
2023-05-14T19:34:08.611Z,101728.97
2023-05-14T19:36:35.151Z,101729.66
2023-05-14T19:39:01.813Z,101725.66
2023-05-14T19:41:28.391Z,101726.56
2023-05-14T19:43:54.787Z,101731.41
2023-05-14T19:46:21.258Z,101725.56
2023-05-14T19:48:48.435Z,101726.50
2023-05-14T19:51:14.826Z,101725.22
2023-05-14T19:53:41.244Z,101725.84
2023-05-14T19:56:07.784Z,101730.63
2023-05-14T19:58:34.339Z,101722.00
2023-05-14T20:01:00.785Z,101727.16
2023-05-14T20:03:27.410Z,101729.16
2023-05-14T20:05:55.239Z,101731.13
2023-05-14T20:08:22.064Z,101729.72
2023-05-14T20:10:48.724Z,101722.72
2023-05-14T20:13:15.540Z,101720.31
2023-05-14T20:15:42.834Z,101728.28
2023-05-14T20:18:09.595Z,101724.91
2023-05-14T20:20:36.583Z,101726.75
2023-05-14T20:23:03.545Z,101727.59
2023-05-14T20:25:30.146Z,101722.66
2023-05-14T20:27:56.764Z,101715.50
2023-05-14T20:30:23.305Z,101712.97
2023-05-14T20:32:49.920Z,101712.38
2023-05-14T20:35:16.430Z,101714.09
2023-05-14T20:37:42.839Z,101715.75
2023-05-14T20:40:12.824Z,101714.88
2023-05-14T20:42:39.338Z,101709.75
2023-05-14T20:45:06.892Z,101707.44
2023-05-14T20:47:34.179Z,101708.41
2023-05-14T20:50:01.020Z,101705.06
2023-05-14T20:52:27.585Z,101703.34
2023-05-14T20:54:54.022Z,101701.69
2023-05-14T20:57:20.576Z,101705.06
2023-05-14T21:02:14.021Z,101692.13
2023-05-14T21:04:41.029Z,101698.44
2023-05-14T21:07:07.689Z,101694.03
2023-05-14T21:09:34.180Z,101697.59
2023-05-14T21:12:00.646Z,101684.56
2023-05-14T21:14:27.087Z,101689.66
2023-05-14T21:16:53.664Z,101690.44
2023-05-14T21:19:20.389Z,101691.34
2023-05-14T21:21:47.335Z,101695.09
2023-05-14T21:24:13.827Z,101696.28
2023-05-14T21:26:41.359Z,101699.03
2023-05-14T21:29:07.826Z,101695.66
2023-05-14T21:31:34.271Z,101695.81
2023-05-14T21:34:00.788Z,101700.22
2023-05-14T21:36:27.248Z,101698.44
2023-05-14T21:38:53.815Z,101695.94
2023-05-14T21:41:21.033Z,101694.28
2023-05-14T21:43:47.500Z,101685.97
2023-05-14T21:46:13.905Z,101682.75
2023-05-14T21:48:40.439Z,101676.50
2023-05-14T21:51:06.988Z,101682.56
2023-05-14T21:53:34.621Z,101676.56
2023-05-14T21:56:01.014Z,101671.44
2023-05-14T21:58:27.802Z,101677.66
2023-05-14T22:00:54.205Z,101676.88
2023-05-14T22:03:20.834Z,101675.44
2023-05-14T22:05:47.745Z,101678.34
2023-05-14T22:08:14.108Z,101676.78
2023-05-14T22:10:40.799Z,101670.63
2023-05-14T22:13:07.150Z,101674.09
2023-05-14T22:15:34.384Z,101664.56
2023-05-14T22:18:00.900Z,101662.66
2023-05-14T22:20:27.427Z,101661.94
2023-05-14T22:22:53.922Z,101660.41
2023-05-14T22:25:20.436Z,101663.19
2023-05-14T22:27:46.882Z,101665.00
2023-05-14T22:30:13.414Z,101660.66
2023-05-14T22:32:39.945Z,101664.28
2023-05-14T22:35:06.652Z,101660.00
2023-05-14T22:37:33.054Z,101652.03
2023-05-14T22:39:59.530Z,101660.59
2023-05-14T22:42:27.151Z,101644.97
2023-05-14T22:44:53.667Z,101654.59
2023-05-14T22:47:20.202Z,101638.91
2023-05-14T22:49:46.844Z,101644.06
2023-05-14T22:52:13.311Z,101639.75
2023-05-14T22:54:39.744Z,101642.66
2023-05-14T22:57:06.615Z,101630.66
2023-05-14T22:59:33.276Z,101628.28
2023-05-14T23:01:59.783Z,101631.66
2023-05-14T23:04:26.423Z,101627.44
2023-05-14T23:06:52.895Z,101624.06
2023-05-14T23:09:19.254Z,101625.75
2023-05-14T23:11:46.181Z,101625.00
2023-05-14T23:14:12.577Z,101618.75
2023-05-14T23:16:39.479Z,101631.81
2023-05-14T23:19:06.081Z,101626.81
2023-05-14T23:21:32.975Z,101628.44
2023-05-14T23:23:59.387Z,101629.16
2023-05-14T23:26:25.879Z,101625.66
2023-05-14T23:28:52.352Z,101621.44
2023-05-14T23:31:18.785Z,101616.91
2023-05-14T23:33:46.293Z,101608.44
2023-05-14T23:36:12.872Z,101612.00
2023-05-14T23:38:40.099Z,101605.00
2023-05-14T23:41:06.467Z,101606.59
2023-05-14T23:43:33.693Z,101600.41
2023-05-14T23:46:00.948Z,101588.25
2023-05-14T23:48:27.616Z,101584.03
2023-05-14T23:50:53.979Z,101578.72
2023-05-14T23:53:20.367Z,101581.25
2023-05-14T23:55:46.904Z,101577.00
2023-05-14T23:58:13.305Z,101580.41
